createdAt,value
2022-08-17T00:02:25.551Z,5.90
2022-08-17T00:07:31.162Z,14.65
2022-08-17T00:12:44.619Z,9.23
2022-08-17T00:17:49.599Z,16.38
2022-08-17T00:23:03.989Z,12.00
2022-08-17T00:28:07.583Z,9.50
2022-08-17T00:33:16.483Z,13.68
2022-08-17T00:38:28.844Z,7.00
2022-08-17T00:43:35.620Z,7.93
2022-08-17T00:48:39.303Z,16.27
2022-08-17T00:53:46.422Z,4.63
2022-08-17T00:58:51.414Z,11.82
2022-08-17T01:03:55.629Z,11.05
2022-08-17T01:09:05.480Z,8.27
2022-08-17T01:14:08.928Z,5.90
2022-08-17T01:19:17.167Z,7.32
2022-08-17T01:24:21.781Z,11.48
2022-08-17T01:29:25.835Z,7.50
2022-08-17T01:34:42.638Z,12.85
2022-08-17T01:39:51.973Z,12.15
2022-08-17T01:44:58.526Z,5.35
2022-08-17T01:50:08.541Z,11.15
2022-08-17T01:55:14.532Z,8.50
2022-08-17T02:00:18.254Z,12.05
2022-08-17T02:05:21.058Z,9.90
2022-08-17T02:10:25.400Z,6.57
2022-08-17T02:15:36.969Z,9.38
2022-08-17T02:20:41.851Z,10.70
2022-08-17T02:25:48.848Z,5.47
2022-08-17T02:31:00.858Z,13.65
2022-08-17T02:36:06.758Z,8.10
2022-08-17T02:41:12.962Z,11.57
2022-08-17T02:46:15.773Z,12.55
2022-08-17T02:51:18.563Z,14.75
2022-08-17T02:56:22.667Z,9.07
2022-08-17T03:01:25.475Z,10.05
2022-08-17T03:06:29.127Z,7.80
2022-08-17T03:11:33.199Z,12.02
2022-08-17T03:16:35.946Z,10.93
2022-08-17T03:21:39.040Z,14.02
2022-08-17T03:26:43.224Z,8.13
2022-08-17T03:31:46.654Z,15.90
2022-08-17T03:36:49.425Z,9.93
2022-08-17T03:41:53.477Z,10.38
2022-08-17T03:47:13.874Z,10.30
2022-08-17T03:52:42.549Z,11.75
2022-08-17T03:57:46.909Z,9.35
2022-08-17T04:02:49.951Z,8.18
2022-08-17T04:07:52.775Z,6.75
2022-08-17T04:12:58.211Z,13.45
2022-08-17T04:18:01.251Z,15.57
2022-08-17T04:23:06.431Z,12.00
2022-08-17T04:28:16.153Z,7.30
2022-08-17T04:33:21.809Z,12.13
2022-08-17T04:38:26.213Z,11.15
2022-08-17T04:43:32.844Z,10.52
2022-08-17T04:48:38.202Z,9.20
2022-08-17T04:53:44.029Z,16.25
2022-08-17T04:58:51.527Z,6.95
2022-08-17T05:03:56.094Z,10.18
2022-08-17T05:08:59.942Z,19.92
2022-08-17T05:14:04.665Z,13.15
2022-08-17T05:19:07.392Z,8.85
2022-08-17T05:24:38.510Z,10.10
2022-08-17T05:29:35.617Z,11.68
2022-08-17T05:34:39.260Z,10.82
2022-08-17T05:39:42.010Z,16.90
2022-08-17T05:44:46.118Z,10.93
2022-08-17T05:49:49.258Z,7.45
2022-08-17T05:55:04.894Z,16.63
2022-08-17T06:00:15.697Z,7.40
2022-08-17T06:05:39.920Z,8.05
2022-08-17T06:10:50.522Z,12.85
2022-08-17T06:16:02.979Z,22.38
2022-08-17T06:21:08.794Z,22.23
2022-08-17T06:26:15.644Z,24.08
2022-08-17T06:31:27.380Z,15.55
2022-08-17T06:36:41.700Z,50.63
2022-08-17T06:41:54.912Z,22.95
2022-08-17T06:47:07.103Z,17.92
2022-08-17T06:52:43.360Z,23.70
2022-08-17T06:57:43.352Z,25.25
2022-08-17T07:02:53.025Z,17.20
2022-08-17T07:08:03.332Z,26.23
2022-08-17T07:13:25.590Z,12.50
2022-08-17T07:18:33.061Z,11.48
2022-08-17T07:23:47.412Z,22.75
2022-08-17T07:28:50.780Z,15.88
2022-08-17T07:34:04.398Z,11.63
2022-08-17T07:39:07.112Z,13.82
2022-08-17T07:44:16.402Z,8.15
2022-08-17T07:49:24.775Z,15.70
2022-08-17T07:54:32.476Z,17.38
2022-08-17T07:59:36.873Z,14.18
2022-08-17T08:05:02.385Z,19.85
2022-08-17T08:10:10.870Z,10.55
2022-08-17T08:15:18.489Z,14.60
2022-08-17T08:20:40.879Z,8.60
2022-08-17T08:26:09.403Z,11.10
2022-08-17T08:31:25.191Z,12.38
2022-08-17T08:37:02.024Z,16.10
2022-08-17T08:42:12.546Z,10.15
2022-08-17T08:47:23.379Z,12.68
2022-08-17T08:52:49.168Z,13.25
2022-08-17T08:57:57.933Z,13.40
2022-08-17T09:03:20.032Z,12.32
2022-08-17T09:08:38.405Z,21.58
2022-08-17T09:13:54.379Z,18.52
2022-08-17T09:19:04.983Z,20.50
2022-08-17T09:24:15.428Z,11.68
2022-08-17T09:29:32.568Z,14.68
2022-08-17T09:34:51.044Z,6.97
2022-08-17T09:40:10.450Z,30.73
2022-08-17T09:45:27.517Z,12.95
2022-08-17T09:51:04.005Z,10.50
2022-08-17T09:56:20.840Z,14.52
2022-08-17T10:01:31.510Z,8.00
2022-08-17T10:06:53.610Z,16.02
2022-08-17T10:12:20.303Z,14.10
2022-08-17T10:17:28.787Z,10.70
2022-08-17T10:22:57.997Z,14.52
2022-08-17T10:28:09.795Z,16.35
2022-08-17T10:33:27.834Z,13.75
2022-08-17T10:38:45.996Z,9.45
2022-08-17T10:44:37.031Z,13.30
2022-08-17T10:49:29.392Z,16.90
2022-08-17T10:54:41.685Z,8.68
2022-08-17T10:59:53.756Z,10.32
2022-08-17T11:05:24.830Z,16.05
2022-08-17T11:10:45.568Z,9.82
2022-08-17T11:16:07.761Z,12.57
2022-08-17T11:21:40.409Z,12.93
2022-08-17T11:26:48.738Z,18.08
2022-08-17T11:32:07.737Z,10.77
2022-08-17T11:37:42.710Z,13.60
2022-08-17T11:43:14.935Z,9.60
2022-08-17T11:48:40.708Z,14.70
2022-08-17T11:54:30.689Z,11.10
2022-08-17T11:59:57.690Z,18.77
2022-08-17T12:05:13.903Z,7.90
2022-08-17T12:10:21.597Z,11.73
2022-08-17T12:15:30.664Z,10.43
2022-08-17T12:20:39.526Z,12.18
2022-08-17T12:25:49.329Z,11.40
2022-08-17T12:30:52.970Z,5.70
2022-08-17T12:36:02.769Z,4.68
2022-08-17T12:41:21.921Z,8.15
2022-08-17T12:46:24.690Z,6.57
2022-08-17T12:51:30.036Z,6.93
2022-08-17T12:56:32.834Z,5.35
2022-08-17T13:01:38.782Z,3.80
2022-08-17T13:06:50.903Z,3.80
2022-08-17T13:12:02.388Z,7.15
2022-08-17T13:17:13.290Z,5.25
2022-08-17T13:22:23.795Z,5.93
2022-08-17T13:27:28.683Z,6.05
2022-08-17T13:32:43.667Z,13.80
2022-08-17T13:43:03.280Z,5.18
2022-08-17T13:48:12.498Z,12.73
2022-08-17T13:53:21.143Z,13.40
2022-08-17T13:58:27.588Z,5.32
2022-08-17T14:03:30.362Z,5.82
2022-08-17T14:08:34.911Z,8.18
2022-08-17T14:13:37.707Z,5.67
2022-08-17T14:18:56.918Z,4.65
2022-08-17T14:24:01.560Z,9.27
2022-08-17T14:29:05.135Z,8.25
2022-08-17T14:34:19.833Z,10.48
2022-08-17T14:39:25.247Z,4.20
2022-08-17T14:44:28.121Z,5.28
2022-08-17T14:49:31.516Z,8.75
2022-08-17T14:54:35.708Z,6.50
2022-08-17T14:59:38.521Z,5.15
2022-08-17T15:04:45.526Z,10.23
2022-08-17T15:09:50.068Z,5.47
2022-08-17T15:14:53.177Z,7.45
2022-08-17T15:19:55.875Z,6.45
2022-08-17T15:25:05.467Z,7.72
2022-08-17T15:30:09.885Z,4.97
2022-08-17T15:35:14.310Z,5.40
2022-08-17T15:40:19.271Z,5.97
2022-08-17T15:45:26.929Z,6.03
2022-08-17T15:50:30.812Z,9.98
2022-08-17T15:55:36.592Z,9.05
2022-08-17T16:01:14.192Z,4.38
2022-08-17T16:06:02.619Z,7.45
2022-08-17T16:11:08.287Z,4.78
2022-08-17T16:16:11.732Z,6.10
2022-08-17T16:21:42.461Z,8.47
2022-08-17T16:26:47.331Z,6.30
2022-08-17T16:31:51.203Z,15.20
2022-08-17T16:36:56.487Z,11.57
2022-08-17T16:42:02.673Z,9.07
2022-08-17T16:47:07.381Z,10.05
2022-08-17T16:52:11.313Z,12.82
2022-08-17T16:57:17.452Z,11.38
2022-08-17T17:02:31.369Z,20.60
2022-08-17T17:07:49.613Z,10.77
2022-08-17T17:13:03.195Z,16.55
2022-08-17T17:18:12.250Z,16.40
2022-08-17T17:23:29.043Z,12.00
2022-08-17T17:28:43.439Z,17.55
2022-08-17T17:33:50.364Z,14.27
2022-08-17T17:38:55.549Z,22.52
2022-08-17T17:44:08.945Z,18.27
2022-08-17T17:49:14.207Z,20.05
2022-08-17T17:54:32.450Z,23.08
2022-08-17T17:59:49.522Z,15.77
2022-08-17T18:05:03.934Z,17.38
2022-08-17T18:10:29.665Z,19.17
2022-08-17T18:15:37.847Z,20.73
2022-08-17T18:20:43.295Z,16.73
2022-08-17T18:25:58.695Z,18.90
2022-08-17T18:31:22.001Z,21.23
2022-08-17T18:36:29.554Z,17.85
2022-08-17T18:41:41.371Z,18.77
2022-08-17T18:46:45.497Z,31.23
2022-08-17T18:51:48.302Z,23.25
2022-08-17T18:56:56.896Z,20.70
2022-08-17T19:02:33.664Z,40.25
2022-08-17T19:07:45.781Z,20.80
2022-08-17T19:12:52.714Z,26.30
2022-08-17T19:23:12.139Z,21.42
2022-08-17T19:28:22.907Z,20.95
2022-08-17T19:33:27.353Z,31.30
2022-08-17T19:38:45.607Z,23.95
2022-08-17T19:44:01.926Z,25.80
2022-08-17T19:49:14.591Z,26.90
2022-08-17T19:54:26.437Z,18.42
2022-08-17T19:59:50.987Z,19.00
2022-08-17T20:04:59.770Z,23.73
2022-08-17T20:10:07.890Z,22.70
2022-08-17T20:15:12.927Z,20.45
2022-08-17T20:20:27.693Z,21.58
2022-08-17T20:36:03.371Z,20.85
2022-08-17T20:41:16.067Z,19.52
2022-08-17T20:46:50.184Z,16.52
2022-08-17T20:52:02.556Z,19.95
2022-08-17T20:57:06.179Z,18.13
2022-08-17T21:02:21.530Z,16.10
2022-08-17T21:07:29.944Z,18.45
2022-08-17T21:12:48.378Z,25.17
2022-08-17T21:18:02.857Z,20.73
2022-08-17T21:23:37.072Z,21.15
2022-08-17T21:29:00.888Z,20.33
2022-08-17T21:34:35.523Z,22.92
2022-08-17T21:39:41.634Z,27.55
2022-08-17T21:44:49.582Z,21.23
2022-08-17T21:49:52.814Z,20.58
2022-08-17T21:55:00.271Z,27.65
2022-08-17T22:00:15.324Z,21.13
2022-08-17T22:05:30.169Z,24.02
2022-08-17T22:10:39.354Z,30.08
2022-08-17T22:15:43.765Z,23.07
2022-08-17T22:20:50.721Z,29.50
2022-08-17T22:26:04.207Z,23.50
2022-08-17T22:31:09.830Z,22.50
2022-08-17T22:36:29.242Z,21.52
2022-08-17T22:41:51.130Z,24.92
2022-08-17T22:47:04.415Z,22.05
2022-08-17T22:52:29.946Z,24.17
2022-08-17T22:57:51.503Z,25.70
2022-08-17T23:03:09.001Z,35.72
2022-08-17T23:08:12.710Z,23.77
2022-08-17T23:13:16.894Z,29.40
2022-08-17T23:18:20.428Z,25.52
2022-08-17T23:23:23.895Z,25.55
2022-08-17T23:28:28.500Z,28.35
2022-08-17T23:33:34.667Z,24.83
2022-08-17T23:38:37.526Z,31.90
2022-08-17T23:43:44.086Z,37.95
2022-08-17T23:48:47.579Z,28.70
2022-08-17T23:53:55.508Z,28.80
2022-08-17T23:59:00.178Z,27.77
